KSHL

Sheldon Regional Airport

Sheldon, Iowa, USA
METAR KSHL 210515Z AUTO 01005KT 10SM FEW040 FEW046 16/16 A3002 RMK AO2
Observed Flight Rules
Aug-21 @ 05:15 UTC (9 hours ago) Visual Flight Rules
Wind Visibility Clouds
10° at 5 knots 10 miles
  • Few at 4,000' AGL
  • Few at 4,600' AGL
Temperatures Readings
Current 16°C / 61°F
Dewpoint 16°C / 61°F
Humidity 100%
Altimeter 30.02" Hg
Pressure 1017 hPa
Elevation 432
METAR KSHL 210515Z AUTO 01005KT 10SM FEW040 FEW046 16/16 A3002 RMK AO2
Observed Flight Rules
Aug-21 @ 05:15 UTC
(9 hours ago)
VFR
Wind Visibility
10° at 5 knots 10 miles
Clouds
  • Few at 4,000' AGL
  • Few at 4,600' AGL
Temperature Dewpoint
16°C / 61°F 16°C / 61°F
Humidity Altimeter Pressure
100% 30.02" Hg 1017 hPa